Time;durP1;ratioP1;P1;durP2;ratioP2;P2;SDS_P1;SDS_P2;PMS_P1;PMS_P2;Temp;Humidity;BMP_temperature;BMP_pressure;BME280_temperature;BME280_humidity;BME280_pressure;Samples;Min_cycle;Max_cycle;Signal;HPM_P1;HPM_P2
2021/08/10 00:01:45;;;;;;;4.28;2.42;;;21.20;99.90;;;;;;5108075;28;20031;-76
2021/08/10 00:04:10;;;;;;;4.53;2.25;;;21.20;99.90;;;;;;5109415;28;20086;-76
2021/08/10 00:06:36;;;;;;;7.70;2.60;;;21.20;99.90;;;;;;5090953;28;20030;-76
2021/08/10 00:09:02;;;;;;;4.55;2.33;;;21.20;99.90;;;;;;5090958;28;20023;-76
2021/08/10 00:11:27;;;;;;;3.67;2.78;;;21.20;99.90;;;;;;5091024;28;20108;-76
2021/08/10 00:13:53;;;;;;;4.68;2.35;;;21.20;99.90;;;;;;5109133;28;20562;-75
2021/08/10 00:16:19;;;;;;;3.22;2.20;;;21.10;99.70;;;;;;5090121;28;20062;-76
2021/08/10 00:18:44;;;;;;;4.70;2.70;;;21.10;99.70;;;;;;5108851;28;20062;-76
2021/08/10 00:21:10;;;;;;;5.03;2.25;;;21.00;99.60;;;;;;5109295;28;20035;-76
2021/08/10 00:23:36;;;;;;;5.18;2.28;;;21.00;99.70;;;;;;5090667;28;20123;-76
2021/08/10 00:26:01;;;;;;;7.95;2.42;;;21.00;99.80;;;;;;5090566;28;20684;-75
2021/08/10 00:28:27;;;;;;;5.25;2.08;;;20.90;99.90;;;;;;5090029;28;20031;-76
2021/08/10 00:30:53;;;;;;;3.60;1.95;;;20.90;99.90;;;;;;5089371;28;20055;-76
2021/08/10 00:33:18;;;;;;;5.40;1.90;;;20.80;99.90;;;;;;5108224;28;20521;-76
2021/08/10 00:35:44;;;;;;;4.55;2.08;;;20.80;99.90;;;;;;5108761;28;20032;-75
2021/08/10 00:38:10;;;;;;;4.25;2.10;;;20.80;99.90;;;;;;5090313;28;20027;-76
2021/08/10 00:40:37;;;;;;;6.25;2.10;;;20.80;99.90;;;;;;5090142;28;20031;-76
2021/08/10 00:43:03;;;;;;;5.18;2.22;;;20.80;99.90;;;;;;5090311;28;20216;-76
2021/08/10 00:45:29;;;;;;;3.50;1.85;;;20.80;99.90;;;;;;5107857;28;20498;-75
2021/08/10 00:47:54;;;;;;;2.70;1.70;;;20.90;99.90;;;;;;5089202;28;20024;-75
2021/08/10 00:50:20;;;;;;;2.47;1.40;;;21.00;99.90;;;;;;5108755;28;20038;-76
2021/08/10 00:52:46;;;;;;;3.10;1.73;;;20.90;99.90;;;;;;5089976;28;20031;-77
2021/08/10 00:55:12;;;;;;;2.95;1.73;;;21.00;99.90;;;;;;5108535;28;20089;-76
2021/08/10 00:57:38;;;;;;;4.85;1.60;;;21.00;99.90;;;;;;5090113;28;20404;-76
2021/08/10 01:00:07;;;;;;;2.30;1.40;;;21.00;99.90;;;;;;5089883;28;20036;-76
2021/08/10 01:02:33;;;;;;;3.33;1.63;;;21.00;99.90;;;;;;5088564;28;20027;-76
2021/08/10 01:04:59;;;;;;;4.88;1.63;;;21.00;99.90;;;;;;5108619;28;20039;-77
2021/08/10 01:07:45;;;;;;;3.30;1.55;;;21.00;99.90;;;;;;5108290;28;20044;-76
2021/08/10 01:10:22;;;;;;;3.53;1.58;;;21.00;99.90;;;;;;5108122;28;20469;-77
2021/08/10 01:13:28;;;;;;;2.35;1.50;;;20.90;99.90;;;;;;5108151;28;20035;-77
2021/08/10 01:16:17;;;;;;;3.22;1.70;;;20.90;99.90;;;;;;5039243;28;20427;-76
2021/08/10 01:19:01;;;;;;;6.32;1.50;;;20.80;99.90;;;;;;5089218;28;20062;-77
2021/08/10 01:21:37;;;;;;;2.15;1.20;;;20.80;99.90;;;;;;5089307;28;20028;-76
2021/08/10 01:24:25;;;;;;;12.38;1.65;;;20.80;99.90;;;;;;5088939;28;20130;-76
2021/08/10 01:26:53;;;;;;;4.97;1.63;;;20.80;99.90;;;;;;5107177;28;20043;-76
2021/08/10 01:29:45;;;;;;;2.53;1.60;;;20.80;99.90;;;;;;5107911;28;20027;-78
2021/08/10 01:32:10;;;;;;;4.35;1.23;;;20.70;99.90;;;;;;5088050;28;20024;-76
2021/08/10 01:34:40;;;;;;;3.42;1.23;;;20.70;99.90;;;;;;5108486;28;20521;-75
2021/08/10 01:37:12;;;;;;;6.03;2.03;;;20.60;99.90;;;;;;5092399;28;20029;-75
2021/08/10 01:39:39;;;;;;;2.55;1.40;;;20.50;99.90;;;;;;5092225;28;20118;-74
2021/08/10 01:42:06;;;;;;;5.07;2.85;;;20.40;99.90;;;;;;5089777;28;20496;-76
2021/08/10 01:44:34;;;;;;;4.20;1.85;;;20.30;99.90;;;;;;5087356;28;20040;-74
2021/08/10 01:47:01;;;;;;;2.45;1.35;;;20.10;99.90;;;;;;5088962;28;20117;-74
2021/08/10 01:49:28;;;;;;;2.47;1.63;;;20.10;99.90;;;;;;5091430;28;20035;-74
2021/08/10 01:51:57;;;;;;;2.90;1.67;;;20.00;99.90;;;;;;5074082;28;20090;-75
2021/08/10 01:54:24;;;;;;;3.25;1.73;;;20.00;99.90;;;;;;5088899;28;20127;-74
2021/08/10 01:56:50;;;;;;;4.15;1.42;;;19.90;99.90;;;;;;5070852;28;20048;-75
2021/08/10 01:59:17;;;;;;;3.70;1.30;;;19.80;99.90;;;;;;5088537;28;20042;-74
2021/08/10 02:01:44;;;;;;;5.97;1.60;;;19.80;99.90;;;;;;5070373;28;20036;-74
2021/08/10 02:04:11;;;;;;;3.35;2.08;;;19.70;99.90;;;;;;5098229;28;20027;-74
2021/08/10 02:06:38;;;;;;;4.70;2.08;;;19.60;99.90;;;;;;5088409;28;20507;-74
2021/08/10 02:09:05;;;;;;;3.75;1.50;;;19.50;99.90;;;;;;5107388;28;20032;-75
2021/08/10 02:11:32;;;;;;;3.53;1.67;;;19.50;99.90;;;;;;5081842;28;20506;-74
2021/08/10 02:13:59;;;;;;;5.28;1.77;;;19.50;99.90;;;;;;5094470;28;20038;-75
2021/08/10 02:16:26;;;;;;;4.50;1.92;;;19.50;99.90;;;;;;5094961;28;20035;-75
2021/08/10 02:18:52;;;;;;;4.35;1.70;;;19.40;99.90;;;;;;5108889;28;20114;-75
2021/08/10 02:21:35;;;;;;;4.45;1.60;;;19.40;99.90;;;;;;5092678;28;20036;-75
2021/08/10 02:24:10;;;;;;;6.97;2.15;;;19.40;99.90;;;;;;5105271;28;20043;-75
2021/08/10 02:26:44;;;;;;;5.55;2.10;;;19.30;99.90;;;;;;5090433;28;20325;-75
2021/08/10 02:29:12;;;;;;;5.18;1.50;;;19.30;99.90;;;;;;5093103;28;20036;-75
2021/08/10 02:31:39;;;;;;;5.28;1.52;;;19.20;99.90;;;;;;5108530;28;20039;-75
2021/08/10 02:34:05;;;;;;;2.85;1.55;;;19.10;99.90;;;;;;5098759;28;20138;-75
2021/08/10 02:36:32;;;;;;;3.65;1.77;;;19.10;99.90;;;;;;5110839;28;20077;-75
2021/08/10 02:39:04;;;;;;;3.95;2.05;;;19.10;99.90;;;;;;5090857;28;20039;-74
2021/08/10 02:41:30;;;;;;;3.00;1.80;;;19.10;99.90;;;;;;5092413;28;20028;-75
2021/08/10 02:43:57;;;;;;;5.93;2.20;;;19.10;99.90;;;;;;5108843;28;20040;-75
2021/08/10 02:46:22;;;;;;;6.35;2.25;;;19.00;99.90;;;;;;5109673;28;20429;-75
2021/08/10 02:48:48;;;;;;;4.93;1.73;;;19.00;99.90;;;;;;5109586;28;20028;-75
2021/08/10 02:51:13;;;;;;;3.45;1.92;;;19.00;99.90;;;;;;5091008;28;20027;-75
2021/08/10 02:53:39;;;;;;;7.07;1.95;;;18.90;99.90;;;;;;5109491;28;20036;-75
2021/08/10 02:56:12;;;;;;;3.08;1.58;;;18.80;99.90;;;;;;5109330;28;20030;-75
2021/08/10 02:59:03;;;;;;;2.65;1.90;;;18.80;99.90;;;;;;5090878;28;20400;-75
2021/08/10 03:01:48;;;;;;;5.78;2.47;;;18.80;99.90;;;;;;5094230;28;20502;-74
2021/08/10 03:04:14;;;;;;;3.65;1.92;;;18.70;99.90;;;;;;5112933;28;20078;-75
2021/08/10 03:06:41;;;;;;;5.85;2.05;;;18.70;99.90;;;;;;5113464;28;20049;-76
2021/08/10 03:09:09;;;;;;;5.55;2.22;;;18.70;99.90;;;;;;5113476;28;20042;-75
2021/08/10 03:11:40;;;;;;;5.65;2.47;;;18.70;99.90;;;;;;5113358;28;20142;-75
2021/08/10 03:14:11;;;;;;;4.95;1.98;;;18.70;99.90;;;;;;5094490;28;20503;-75
2021/08/10 03:16:39;;;;;;;4.20;2.00;;;18.70;99.90;;;;;;5113357;28;20031;-75
2021/08/10 03:19:06;;;;;;;6.50;2.50;;;18.70;99.90;;;;;;5113127;28;20541;-75
2021/08/10 03:21:34;;;;;;;5.20;2.17;;;18.70;99.90;;;;;;5094866;28;20019;-76
2021/08/10 03:24:04;;;;;;;6.85;3.58;;;18.70;99.90;;;;;;5112735;28;20114;-75
2021/08/10 03:26:30;;;;;;;6.72;3.28;;;18.60;99.90;;;;;;5094963;28;20118;-75
2021/08/10 03:28:56;;;;;;;4.63;2.13;;;18.70;99.90;;;;;;5094652;28;20033;-75
2021/08/10 03:31:23;;;;;;;3.00;1.83;;;18.60;99.90;;;;;;5113103;28;20027;-75
2021/08/10 03:33:50;;;;;;;6.45;2.55;;;18.60;99.90;;;;;;5094302;28;20047;-75
2021/08/10 03:36:17;;;;;;;7.38;2.67;;;18.60;99.90;;;;;;5094703;28;20030;-76
2021/08/10 03:38:44;;;;;;;7.57;2.03;;;18.60;99.90;;;;;;5112566;28;20019;-75
2021/08/10 03:41:10;;;;;;;11.93;2.58;;;18.60;99.90;;;;;;5094607;28;20036;-75
2021/08/10 03:43:36;;;;;;;8.52;2.38;;;18.60;99.90;;;;;;5094329;28;20072;-76
2021/08/10 03:46:03;;;;;;;8.52;2.05;;;18.60;99.90;;;;;;5094166;28;20059;-75
2021/08/10 03:48:40;;;;;;;5.75;2.45;;;18.60;99.90;;;;;;5094377;28;20020;-75
2021/08/10 03:51:06;;;;;;;6.13;2.70;;;18.70;99.90;;;;;;5094325;28;20119;-76
2021/08/10 03:53:32;;;;;;;8.07;2.90;;;18.70;99.90;;;;;;5094226;28;20579;-75
2021/08/10 03:55:59;;;;;;;4.65;2.33;;;18.70;99.90;;;;;;5094041;28;20040;-75
2021/08/10 03:58:27;;;;;;;4.53;2.58;;;18.70;99.90;;;;;;5094127;28;20110;-75
2021/08/10 04:00:55;;;;;;;9.55;2.75;;;18.80;99.90;;;;;;5112353;28;20031;-75
2021/08/10 04:03:21;;;;;;;5.47;2.33;;;18.80;99.90;;;;;;5112268;28;20102;-75
2021/08/10 04:05:49;;;;;;;7.72;2.63;;;18.80;99.90;;;;;;5112372;28;20451;-75
2021/08/10 04:08:16;;;;;;;6.45;2.83;;;18.90;99.90;;;;;;5112178;28;20023;-75
2021/08/10 04:10:44;;;;;;;10.23;2.97;;;18.90;99.90;;;;;;5112111;28;20047;-76
2021/08/10 04:13:11;;;;;;;4.35;2.50;;;19.00;99.90;;;;;;5093304;28;20491;-75
2021/08/10 04:15:45;;;;;;;5.40;2.25;;;19.10;99.90;;;;;;5093740;28;20023;-75
2021/08/10 04:18:13;;;;;;;5.38;1.88;;;19.20;99.90;;;;;;5112117;28;20185;-75
2021/08/10 04:20:39;;;;;;;5.30;2.25;;;19.30;99.90;;;;;;5093744;28;20591;-75
2021/08/10 04:23:05;;;;;;;7.32;2.42;;;19.50;99.90;;;;;;5093581;28;20043;-75
2021/08/10 04:25:31;;;;;;;5.45;2.00;;;19.60;99.90;;;;;;5093571;28;20084;-75
2021/08/10 04:27:57;;;;;;;5.90;2.22;;;19.70;99.90;;;;;;5093528;28;20020;-75
2021/08/10 04:30:23;;;;;;;8.25;3.35;;;19.80;99.90;;;;;;5093618;28;20023;-76
2021/08/10 04:32:48;;;;;;;6.28;2.75;;;19.80;99.90;;;;;;5093420;28;20047;-75
2021/08/10 04:35:14;;;;;;;10.48;2.67;;;19.90;99.90;;;;;;5093560;28;20020;-76
2021/08/10 04:37:39;;;;;;;7.57;2.50;;;20.00;99.90;;;;;;5111764;28;20063;-75
2021/08/10 04:40:06;;;;;;;3.55;1.95;;;20.00;99.90;;;;;;5093145;28;20051;-75
2021/08/10 04:42:34;;;;;;;10.93;2.22;;;20.10;99.90;;;;;;5111589;28;20027;-75
2021/08/10 04:45:00;;;;;;;13.55;2.30;;;20.20;99.90;;;;;;5093147;28;20038;-75
2021/08/10 04:47:25;;;;;;;5.35;2.20;;;20.30;99.90;;;;;;5111451;28;20028;-76
2021/08/10 04:49:51;;;;;;;5.47;2.03;;;20.40;99.90;;;;;;5092916;28;20028;-75
2021/08/10 04:52:16;;;;;;;7.70;1.77;;;20.50;99.90;;;;;;5092844;28;20024;-75
2021/08/10 04:54:42;;;;;;;3.13;1.52;;;20.60;99.90;;;;;;5093181;28;20016;-76
2021/08/10 04:57:08;;;;;;;5.07;1.90;;;20.70;99.90;;;;;;5093112;28;20403;-76
2021/08/10 04:59:33;;;;;;;5.72;1.90;;;20.80;99.90;;;;;;5111339;28;20096;-76
2021/08/10 05:01:59;;;;;;;5.30;2.17;;;20.90;99.90;;;;;;5110799;28;20035;-75
2021/08/10 05:04:24;;;;;;;3.15;2.00;;;21.10;99.90;;;;;;5092908;28;20385;-75
2021/08/10 05:06:51;;;;;;;6.78;2.13;;;21.20;99.90;;;;;;5092928;28;20024;-75
2021/08/10 05:09:17;;;;;;;4.22;1.75;;;21.40;99.90;;;;;;5111231;28;20027;-76
2021/08/10 05:11:43;;;;;;;5.18;1.60;;;21.60;99.90;;;;;;5092728;28;20370;-75
2021/08/10 05:14:08;;;;;;;3.90;1.77;;;21.70;99.90;;;;;;5092829;28;20047;-75
2021/08/10 05:16:34;;;;;;;6.07;1.52;;;21.90;99.90;;;;;;5111042;28;20070;-76
2021/08/10 05:19:00;;;;;;;4.60;1.88;;;22.10;99.40;;;;;;5110961;28;20811;-75
2021/08/10 05:21:25;;;;;;;3.78;1.90;;;22.40;99.00;;;;;;5092359;28;20028;-75
2021/08/10 05:23:51;;;;;;;6.30;2.03;;;22.60;98.40;;;;;;5109663;28;20035;-76
2021/08/10 05:26:17;;;;;;;6.75;1.52;;;23.00;97.90;;;;;;5092253;28;20024;-76
2021/08/10 05:28:43;;;;;;;6.60;1.98;;;23.40;96.80;;;;;;5092433;28;20051;-75
2021/08/10 05:31:08;;;;;;;4.00;1.58;;;23.60;95.90;;;;;;5092399;28;20074;-75
2021/08/10 05:33:34;;;;;;;3.55;1.60;;;23.80;95.30;;;;;;5110509;28;20089;-75
2021/08/10 05:36:00;;;;;;;7.00;1.70;;;23.90;94.90;;;;;;5092147;28;20463;-75
2021/08/10 05:38:26;;;;;;;2.70;1.45;;;24.10;94.80;;;;;;5110743;28;20046;-75
2021/08/10 05:40:53;;;;;;;2.63;1.38;;;24.40;94.10;;;;;;5092098;28;20040;-75
2021/08/10 05:43:19;;;;;;;2.70;1.50;;;24.60;93.20;;;;;;5110458;28;20404;-76
2021/08/10 05:45:44;;;;;;;8.90;1.63;;;24.70;92.60;;;;;;5091881;28;20024;-75
2021/08/10 05:48:11;;;;;;;6.38;1.35;;;24.90;91.40;;;;;;5092043;28;20400;-76
2021/08/10 05:50:37;;;;;;;6.13;1.52;;;25.10;91.30;;;;;;5092100;28;20063;-76
2021/08/10 05:53:03;;;;;;;4.13;1.85;;;25.40;91.00;;;;;;5110033;28;20069;-76
2021/08/10 05:55:29;;;;;;;1.90;1.23;;;25.90;89.50;;;;;;5110103;28;20055;-76
2021/08/10 05:57:54;;;;;;;4.25;1.60;;;26.30;87.50;;;;;;5110128;28;20054;-76
2021/08/10 06:00:20;;;;;;;3.13;1.38;;;26.70;85.00;;;;;;5110197;28;20045;-76
2021/08/10 06:02:45;;;;;;;12.55;1.75;;;27.20;82.30;;;;;;5110039;28;20031;-74
2021/08/10 06:05:11;;;;;;;4.82;1.60;;;28.00;78.40;;;;;;5110034;28;20044;-76
2021/08/10 06:07:37;;;;;;;5.40;2.13;;;29.00;73.80;;;;;;5091805;28;20479;-76
2021/08/10 06:10:03;;;;;;;12.07;1.80;;;29.70;68.80;;;;;;5091251;28;20066;-76
2021/08/10 06:12:29;;;;;;;2.20;1.50;;;30.60;65.30;;;;;;5091669;28;20032;-76
2021/08/10 06:14:54;;;;;;;8.48;1.77;;;31.20;62.50;;;;;;5109924;28;20032;-75
2021/08/10 06:17:20;;;;;;;6.22;1.50;;;31.50;60.90;;;;;;5109966;28;20020;-76
2021/08/10 06:19:45;;;;;;;6.32;1.95;;;31.80;59.10;;;;;;5091426;28;20031;-76
2021/08/10 06:22:11;;;;;;;4.55;1.60;;;32.50;56.00;;;;;;5091502;28;20023;-76
2021/08/10 06:24:37;;;;;;;5.22;1.77;;;32.80;55.30;;;;;;5091090;28;20066;-76
2021/08/10 06:27:03;;;;;;;3.20;1.48;;;33.20;54.20;;;;;;5091429;28;20108;-77
2021/08/10 06:29:28;;;;;;;3.63;1.42;;;33.40;52.70;;;;;;5109779;28;20508;-76
2021/08/10 06:31:54;;;;;;;3.10;1.38;;;34.00;50.80;;;;;;5109740;28;20664;-76
2021/08/10 06:34:19;;;;;;;3.65;1.88;;;34.30;50.20;;;;;;5091053;28;20047;-77
2021/08/10 06:36:45;;;;;;;6.15;1.55;;;34.40;49.10;;;;;;5091097;28;20030;-77
2021/08/10 06:39:11;;;;;;;2.65;1.50;;;34.80;48.00;;;;;;5109578;28;20039;-77
2021/08/10 06:41:38;;;;;;;2.85;1.58;;;35.00;48.00;;;;;;5091288;28;20023;-77
2021/08/10 06:44:04;;;;;;;2.55;1.52;;;35.20;47.30;;;;;;5090980;28;20043;-75
2021/08/10 06:46:30;;;;;;;6.22;1.20;;;35.20;47.70;;;;;;5091380;28;20126;-77
2021/08/10 06:48:56;;;;;;;3.63;1.55;;;35.50;47.00;;;;;;5091244;28;20024;-77
2021/08/10 06:51:22;;;;;;;5.28;1.50;;;35.50;46.30;;;;;;5091267;28;20437;-77
2021/08/10 06:53:48;;;;;;;3.03;1.50;;;35.70;46.20;;;;;;5109319;28;20133;-76
2021/08/10 06:56:14;;;;;;;2.30;1.40;;;35.60;46.00;;;;;;5109427;28;20024;-77
2021/08/10 06:58:39;;;;;;;4.47;1.58;;;35.30;46.80;;;;;;5109375;28;20080;-77
2021/08/10 07:01:05;;;;;;;11.80;1.88;;;35.40;46.70;;;;;;5109528;28;20096;-77
2021/08/10 07:03:32;;;;;;;4.57;1.58;;;35.30;46.60;;;;;;5109296;28;20080;-77
2021/08/10 07:05:58;;;;;;;5.10;1.20;;;35.20;46.80;;;;;;5109398;28;20028;-76
2021/08/10 07:08:24;;;;;;;5.57;1.67;;;35.10;47.10;;;;;;5091182;28;20036;-77
2021/08/10 07:10:49;;;;;;;4.85;1.90;;;35.40;46.70;;;;;;5109767;28;20031;-78
2021/08/10 07:13:15;;;;;;;14.30;1.77;;;35.40;46.80;;;;;;5109557;28;20522;-77
2021/08/10 07:15:41;;;;;;;2.78;1.92;;;35.50;46.70;;;;;;5109242;28;20031;-76
2021/08/10 07:18:07;;;;;;;7.00;1.58;;;35.10;45.80;;;;;;5109083;28;20110;-76
2021/08/10 07:20:32;;;;;;;4.22;1.50;;;34.80;46.90;;;;;;5091296;28;20024;-76
2021/08/10 07:22:58;;;;;;;4.00;1.75;;;35.20;46.30;;;;;;5109110;28;20028;-76
2021/08/10 07:25:24;;;;;;;4.35;1.67;;;35.20;47.50;;;;;;5109077;28;20042;-77
2021/08/10 07:27:49;;;;;;;7.78;2.22;;;35.40;46.40;;;;;;5090824;28;20024;-76
2021/08/10 07:30:16;;;;;;;7.20;2.08;;;35.30;46.50;;;;;;5090946;28;20031;-76
2021/08/10 07:32:41;;;;;;;9.48;1.42;;;35.30;46.50;;;;;;5108770;28;20055;-76
2021/08/10 07:35:08;;;;;;;2.90;1.58;;;35.30;46.30;;;;;;5109125;28;20084;-76
2021/08/10 07:37:41;;;;;;;4.32;2.10;;;35.20;46.70;;;;;;5090819;28;20529;-77
2021/08/10 07:40:12;;;;;;;4.38;1.77;;;35.20;46.30;;;;;;5109254;28;20040;-77
2021/08/10 07:42:38;;;;;;;2.75;2.10;;;35.50;46.20;;;;;;5090784;28;20034;-77
2021/08/10 07:45:05;;;;;;;5.93;1.67;;;35.40;46.00;;;;;;5090565;28;20032;-76
2021/08/10 07:47:32;;;;;;;4.60;1.90;;;35.70;46.50;;;;;;5110087;28;20028;-76
2021/08/10 07:49:58;;;;;;;10.10;2.67;;;36.00;45.90;;;;;;5112574;28;20032;-76
2021/08/10 07:52:23;;;;;;;4.43;2.05;;;36.10;46.10;;;;;;5094097;28;20019;-77
2021/08/10 07:54:49;;;;;;;7.32;2.20;;;36.50;45.40;;;;;;5112542;28;20039;-76
2021/08/10 07:57:14;;;;;;;5.50;1.80;;;36.80;44.20;;;;;;5112145;28;20020;-77
2021/08/10 07:59:40;;;;;;;2.65;1.88;;;37.00;43.60;;;;;;5112429;28;20439;-76
2021/08/10 08:02:06;;;;;;;3.80;1.80;;;37.00;42.40;;;;;;5093951;28;20023;-77
2021/08/10 08:04:35;;;;;;;6.55;2.20;;;37.20;42.60;;;;;;5094089;28;20086;-75
2021/08/10 08:07:02;;;;;;;3.05;1.70;;;37.00;43.10;;;;;;5112397;28;20026;-77
2021/08/10 08:09:28;;;;;;;2.45;1.67;;;36.90;43.20;;;;;;5112228;28;20046;-76
2021/08/10 08:11:54;;;;;;;3.42;1.98;;;37.00;43.10;;;;;;5112155;28;20016;-77
2021/08/10 08:14:20;;;;;;;3.30;1.70;;;37.30;42.70;;;;;;5093755;28;20051;-77
2021/08/10 08:16:47;;;;;;;2.67;1.88;;;37.40;42.20;;;;;;5112332;28;20031;-76
2021/08/10 08:19:12;;;;;;;2.70;1.73;;;37.50;42.20;;;;;;5112184;28;20387;-77
2021/08/10 08:21:39;;;;;;;4.10;1.75;;;37.90;41.20;;;;;;5093796;28;20023;-77
2021/08/10 08:24:05;;;;;;;7.10;1.70;;;38.10;41.20;;;;;;5093424;28;20920;-77
2021/08/10 08:26:31;;;;;;;5.63;2.03;;;38.20;40.90;;;;;;5093721;28;20028;-77
2021/08/10 08:28:56;;;;;;;3.08;2.17;;;38.20;41.40;;;;;;5093568;28;20515;-77
2021/08/10 08:31:22;;;;;;;5.15;1.60;;;38.10;41.00;;;;;;5111856;28;20095;-77
2021/08/10 08:33:48;;;;;;;9.88;2.28;;;38.00;41.20;;;;;;5111439;28;20054;-77
2021/08/10 08:36:14;;;;;;;6.53;2.03;;;38.10;40.80;;;;;;5111759;28;20036;-76
2021/08/10 08:38:40;;;;;;;5.32;2.10;;;38.20;41.00;;;;;;5111736;28;20032;-77
2021/08/10 08:41:06;;;;;;;3.83;1.52;;;38.20;40.50;;;;;;5111688;28;20483;-77
2021/08/10 08:43:32;;;;;;;4.22;1.42;;;38.00;41.10;;;;;;5093127;28;20031;-77
2021/08/10 08:45:57;;;;;;;12.77;2.10;;;38.10;39.70;;;;;;5111383;28;20038;-77
2021/08/10 08:48:25;;;;;;;4.45;1.75;;;38.00;40.70;;;;;;5111426;28;20380;-76
2021/08/10 08:50:51;;;;;;;3.47;1.48;;;38.00;40.50;;;;;;5111352;28;20023;-76
2021/08/10 08:53:18;;;;;;;6.85;1.95;;;38.00;40.30;;;;;;5093142;28;20029;-77
2021/08/10 08:55:46;;;;;;;3.65;1.80;;;38.10;40.30;;;;;;5111210;28;20028;-77
2021/08/10 08:58:13;;;;;;;3.47;1.45;;;38.00;39.30;;;;;;5111118;28;20031;-77
2021/08/10 09:00:39;;;;;;;9.32;2.03;;;38.10;39.50;;;;;;5111439;28;20088;-77
2021/08/10 09:03:05;;;;;;;3.17;1.67;;;38.20;40.00;;;;;;5111238;28;20492;-78
2021/08/10 09:05:34;;;;;;;4.55;1.60;;;38.20;39.40;;;;;;5111153;28;20611;-78
2021/08/10 09:08:28;;;;;;;3.17;1.73;;;38.30;40.30;;;;;;5111068;28;20027;-76
2021/08/10 09:10:56;;;;;;;5.70;2.00;;;38.40;39.50;;;;;;5111005;28;20023;-77
2021/08/10 09:13:21;;;;;;;3.95;1.90;;;38.30;38.50;;;;;;5111204;28;20040;-77
2021/08/10 09:15:48;;;;;;;2.40;1.45;;;38.10;38.80;;;;;;5110894;28;20029;-77
2021/08/10 09:18:19;;;;;;;6.55;1.92;;;37.80;40.00;;;;;;5110936;28;20107;-76
2021/08/10 09:21:08;;;;;;;1.48;1.27;;;37.70;40.60;;;;;;5110762;28;20035;-77
2021/08/10 09:23:53;;;;;;;2.63;1.60;;;37.70;39.40;;;;;;5092323;28;20499;-78
2021/08/10 09:26:19;;;;;;;3.25;1.42;;;38.00;39.80;;;;;;5110899;28;20032;-77
2021/08/10 09:28:45;;;;;;;3.38;1.88;;;38.10;39.50;;;;;;5110649;28;20035;-77
2021/08/10 09:31:33;;;;;;;3.05;1.58;;;38.10;39.60;;;;;;5092581;28;20493;-77
2021/08/10 09:34:02;;;;;;;2.75;1.50;;;38.30;38.50;;;;;;5110317;28;20127;-77
2021/08/10 09:36:28;;;;;;;5.50;1.98;;;38.40;38.50;;;;;;5110657;28;20027;-77
2021/08/10 09:38:56;;;;;;;3.70;1.75;;;38.80;38.40;;;;;;5092263;28;20039;-77
2021/08/10 09:41:22;;;;;;;4.65;1.60;;;38.50;39.30;;;;;;5092200;28;20170;-77
2021/08/10 09:43:49;;;;;;;3.47;1.58;;;38.30;38.70;;;;;;5092018;28;20186;-77
2021/08/10 09:46:21;;;;;;;4.35;1.88;;;38.40;39.10;;;;;;5110481;28;20077;-76
2021/08/10 09:48:49;;;;;;;5.35;1.33;;;38.80;37.60;;;;;;5092449;28;20032;-76
2021/08/10 09:51:17;;;;;;;2.33;1.20;;;38.90;37.10;;;;;;5110393;28;20027;-78
2021/08/10 09:53:54;;;;;;;2.67;1.55;;;38.50;38.00;;;;;;5092204;28;20047;-77
2021/08/10 09:56:20;;;;;;;4.28;1.73;;;38.90;37.00;;;;;;5092112;28;20436;-77
2021/08/10 09:59:00;;;;;;;2.92;1.48;;;38.90;36.70;;;;;;5110171;28;20609;-78
2021/08/10 10:01:37;;;;;;;3.40;1.73;;;39.30;36.50;;;;;;5110201;28;20050;-76
2021/08/10 10:04:17;;;;;;;6.20;1.60;;;39.30;35.90;;;;;;5109910;28;20053;-77
2021/08/10 10:06:44;;;;;;;2.17;1.42;;;39.10;36.40;;;;;;5092001;28;20138;-76
2021/08/10 10:09:11;;;;;;;3.60;1.60;;;39.40;36.20;;;;;;5091828;28;20031;-77
2021/08/10 10:11:39;;;;;;;3.15;1.60;;;39.40;35.30;;;;;;5109512;28;20827;-78
2021/08/10 10:14:05;;;;;;;3.35;1.35;;;39.50;33.20;;;;;;5109367;28;20046;-76
2021/08/10 10:16:32;;;;;;;5.05;1.45;;;39.30;32.50;;;;;;5091638;28;20502;-77
2021/08/10 10:19:10;;;;;;;2.28;1.10;;;38.70;32.50;;;;;;5109788;28;20451;-77
2021/08/10 10:21:37;;;;;;;2.67;1.23;;;38.20;33.50;;;;;;5109679;28;20084;-77
2021/08/10 10:24:04;;;;;;;1.38;1.05;;;37.50;33.60;;;;;;5109595;28;20035;-77
2021/08/10 10:26:32;;;;;;;4.55;1.23;;;36.70;35.90;;;;;;5109756;28;20081;-76
2021/08/10 10:28:59;;;;;;;2.05;1.00;;;36.10;36.00;;;;;;5109695;28;20026;-76
2021/08/10 10:31:25;;;;;;;2.72;1.10;;;35.60;36.10;;;;;;5109894;28;20024;-76
2021/08/10 10:33:52;;;;;;;3.13;1.20;;;35.20;36.10;;;;;;5091029;28;20474;-76
2021/08/10 10:36:18;;;;;;;5.80;1.52;;;34.80;36.00;;;;;;5109641;28;20765;-77
2021/08/10 10:38:45;;;;;;;2.63;1.10;;;34.40;37.90;;;;;;5091482;28;20031;-76
2021/08/10 10:41:13;;;;;;;4.28;1.33;;;34.20;38.60;;;;;;5091616;28;20131;-76
2021/08/10 10:43:39;;;;;;;3.42;1.10;;;34.20;37.20;;;;;;5109920;28;20553;-76
2021/08/10 10:46:33;;;;;;;2.53;1.50;;;34.00;36.80;;;;;;5091604;28;20036;-76
2021/08/10 10:49:01;;;;;;;2.47;1.13;;;33.80;32.20;;;;;;5087825;28;20039;-76
2021/08/10 10:51:33;;;;;;;2.45;1.70;;;33.40;33.50;;;;;;5091328;28;20051;-76
2021/08/10 10:54:28;;;;;;;1.90;1.38;;;33.40;35.90;;;;;;5109375;28;20035;-76
2021/08/10 10:56:59;;;;;;;5.63;2.17;;;33.50;36.10;;;;;;5109402;28;20114;-76
2021/08/10 10:59:38;;;;;;;2.30;1.35;;;33.50;35.80;;;;;;5109504;28;20019;-76
2021/08/10 11:02:19;;;;;;;2.65;1.30;;;33.40;35.60;;;;;;5109275;28;20130;-75
2021/08/10 11:05:04;;;;;;;2.97;1.63;;;33.40;35.10;;;;;;5109233;28;20035;-76
2021/08/10 11:07:36;;;;;;;2.50;1.65;;;33.40;36.50;;;;;;5109380;28;20031;-76
2021/08/10 11:10:06;;;;;;;3.15;1.30;;;33.40;35.20;;;;;;5091185;28;20177;-75
2021/08/10 11:12:44;;;;;;;2.10;1.50;;;33.30;35.00;;;;;;5109278;28;20016;-76
2021/08/10 11:15:20;;;;;;;3.90;1.60;;;33.30;33.90;;;;;;5091077;28;20047;-76
2021/08/10 11:18:08;;;;;;;2.40;1.33;;;33.20;34.10;;;;;;5090788;28;20085;-76
2021/08/10 11:20:39;;;;;;;4.00;1.80;;;33.10;36.20;;;;;;5109407;28;20023;-76
2021/08/10 11:23:18;;;;;;;3.58;1.30;;;33.10;37.00;;;;;;5111379;28;20609;-75
2021/08/10 11:25:44;;;;;;;2.67;1.23;;;33.20;37.10;;;;;;5113045;28;20084;-75
2021/08/10 11:28:43;;;;;;;2.92;1.42;;;33.20;36.40;;;;;;5094646;28;20034;-76
2021/08/10 11:31:10;;;;;;;2.22;1.42;;;33.20;36.90;;;;;;5051151;28;20467;-75
2021/08/10 11:33:40;;;;;;;2.92;1.65;;;33.20;37.10;;;;;;5094467;28;20494;-75
2021/08/10 11:36:12;;;;;;;2.30;1.40;;;33.10;36.30;;;;;;5094488;28;20103;-75
2021/08/10 11:38:43;;;;;;;2.58;1.60;;;33.10;36.60;;;;;;5094484;28;20059;-75
2021/08/10 11:41:13;;;;;;;1.98;1.20;;;33.10;36.80;;;;;;5094506;28;20395;-76
2021/08/10 11:43:47;;;;;;;8.13;1.63;;;33.10;36.20;;;;;;5112773;28;20035;-75
2021/08/10 11:46:32;;;;;;;4.80;1.45;;;33.00;36.30;;;;;;5094351;28;20031;-75
2021/08/10 11:49:05;;;;;;;2.80;1.50;;;32.70;35.50;;;;;;5112576;28;20027;-75
2021/08/10 11:51:39;;;;;;;1.95;1.10;;;32.60;35.20;;;;;;5112645;28;20023;-76
2021/08/10 11:54:31;;;;;;;4.57;1.30;;;32.40;35.60;;;;;;5094257;28;20503;-76
2021/08/10 11:57:05;;;;;;;2.97;1.75;;;32.50;36.90;;;;;;5090252;28;20039;-76
2021/08/10 11:59:31;;;;;;;2.40;1.63;;;32.50;36.40;;;;;;5112481;28;20027;-75
2021/08/10 12:02:00;;;;;;;2.63;1.65;;;32.60;35.50;;;;;;5094339;28;20019;-76
2021/08/10 12:04:30;;;;;;;3.30;2.15;;;32.50;33.60;;;;;;5094253;28;20534;-75
2021/08/10 12:06:58;;;;;;;3.03;1.77;;;32.40;34.50;;;;;;5094092;28;20027;-76
2021/08/10 12:09:33;;;;;;;3.50;1.85;;;32.30;34.90;;;;;;5093740;28;20391;-76
2021/08/10 12:11:59;;;;;;;3.40;2.13;;;32.40;35.10;;;;;;5093801;28;20024;-75
2021/08/10 12:14:29;;;;;;;2.38;1.58;;;32.50;34.90;;;;;;5094126;28;20046;-76
2021/08/10 12:16:59;;;;;;;9.35;1.50;;;32.60;35.10;;;;;;5112174;28;20111;-75
2021/08/10 12:19:34;;;;;;;2.97;1.40;;;32.50;35.20;;;;;;5112177;28;20023;-76
2021/08/10 12:22:00;;;;;;;2.60;1.50;;;32.60;35.30;;;;;;5111897;28;20023;-75
2021/08/10 12:24:29;;;;;;;2.35;1.60;;;32.60;35.70;;;;;;5111836;28;20078;-76
2021/08/10 12:26:55;;;;;;;4.35;1.52;;;32.70;36.30;;;;;;5093682;28;20437;-76
2021/08/10 12:29:30;;;;;;;2.72;1.55;;;32.80;36.60;;;;;;5112000;28;20526;-76
2021/08/10 12:31:56;;;;;;;2.63;1.52;;;32.80;38.10;;;;;;5093573;28;20118;-75
2021/08/10 12:34:31;;;;;;;5.72;1.52;;;32.90;38.20;;;;;;5092860;28;20423;-76
2021/08/10 12:36:57;;;;;;;2.73;1.40;;;32.90;38.20;;;;;;5087628;28;20028;-75
2021/08/10 12:39:23;;;;;;;2.72;1.75;;;32.90;37.80;;;;;;5111675;28;20073;-76
2021/08/10 12:41:50;;;;;;;2.55;1.63;;;32.90;36.50;;;;;;5111471;28;20518;-76
2021/08/10 12:44:15;;;;;;;4.38;1.80;;;32.90;36.90;;;;;;5093172;28;20044;-76
2021/08/10 12:46:41;;;;;;;3.35;1.65;;;32.90;36.90;;;;;;5111530;28;20079;-76
2021/08/10 12:49:10;;;;;;;2.28;1.52;;;32.90;36.80;;;;;;5111627;28;20024;-77
2021/08/10 12:51:58;;;;;;;4.63;1.67;;;32.80;36.20;;;;;;5093081;28;20019;-76
2021/08/10 12:54:26;;;;;;;2.42;1.55;;;32.70;35.90;;;;;;5111525;28;20030;-75